MMRX

General Lucio Blanco International Airport

Reynosa, Mexico
TAF COR MMRX 181751Z 1818/1918 17015KT 3SM BR SCT005 OVC008 FM181900 17020KT 6SM HZ SCT015 BKN090 TEMPO 1904/1908 1SM BR OVC005 FM190900 19006KT 2SM BR BKN008 FM191200 33030KT P6SM BKN240
Issued Valid From Valid To
Jan-18 @ 17:51 UTC
(8 hours ago)
Jan-18 @ 18:00 UTC
(8 hours ago)
Jan-19 @ 18:00 UTC
(in 16 hours)
Expired Click to View Jan-18 @ 18:00 to Jan-18 @ 19:00
TAF COR MMRX 181751Z 1818/1918 17015KT 3SM BR SCT005 OVC008
Wind Visibility Clouds Conditions
170° at 15 knots 3 miles
  • Scattered at 500' AGL
  • Overcast at 800' AGL
  • Mist
From Jan-18 @ 19:00 to Jan-19 @ 09:00
FM181900 17020KT 6SM HZ SCT015 BKN090
Wind Visibility Clouds Conditions
170° at 20 knots 6 miles
  • Scattered at 1,500' AGL
  • Broken at 9,000' AGL
  • Haze
Temporary Jan-19 @ 04:00 to Jan-19 @ 08:00
TEMPO 1904/1908 1SM BR OVC005
Visibility Clouds Conditions
1 miles
  • Overcast at 500' AGL
  • Mist
From Jan-19 @ 09:00 to Jan-19 @ 12:00
FM190900 19006KT 2SM BR BKN008
Wind Visibility Clouds Conditions
190° at 6 knots 2 miles
  • Broken at 800' AGL
  • Mist
From Jan-19 @ 12:00 to Jan-19 @ 18:00
FM191200 33030KT P6SM BKN240
Wind Visibility Clouds
330° at 30 knots Greater than 6 miles
  • Broken at 24,000' AGL
TAF COR MMRX 181751Z 1818/1918 17015KT 3SM BR SCT005 OVC008 FM181900 17020KT 6SM HZ SCT015 BKN090 TEMPO 1904/1908 1SM BR OVC005 FM190900 19006KT 2SM BR BKN008 FM191200 33030KT P6SM BKN240
Issued Jan-18 @ 17:51 UTC
(8 hours ago)
Valid From Jan-18 @ 18:00 UTC
(8 hours ago)
Valid To Jan-19 @ 18:00 UTC
(in 16 hours)
Jan-18 @ 18:00 - Jan-18 @ 19:00
Wind Visibility
170° at 15 knots 3 miles
Clouds
  • Scattered at 500' AGL
  • Overcast at 800' AGL
Conditions
  • Mist
From Jan-18 @ 19:00 - Jan-19 @ 09:00
Wind Visibility
170° at 20 knots 6 miles
Clouds
  • Scattered at 1,500' AGL
  • Broken at 9,000' AGL
Conditions
  • Haze
Temporary Jan-19 @ 04:00 - Jan-19 @ 08:00
Clouds
  • Overcast at 500' AGL
Conditions
  • Mist
From Jan-19 @ 09:00 - Jan-19 @ 12:00
Wind Visibility
190° at 6 knots 2 miles
Clouds
  • Broken at 800' AGL
Conditions
  • Mist
From Jan-19 @ 12:00 - Jan-19 @ 18:00
Wind Visibility
330° at 30 knots Greater than 6 miles
Clouds
  • Broken at 24,000' AGL